Time;durP1;ratioP1;P1;durP2;ratioP2;P2;SDS_P1;SDS_P2;PMS_P1;PMS_P2;Temp;Humidity;BMP_temperature;BMP_pressure;BME280_temperature;BME280_humidity;BME280_pressure;Samples;Min_cycle;Max_cycle;Signal;HPM_P1;HPM_P2
2024/01/03 00:00:35;;;;;;;5.88;1.13;;;8.60;99.90;;;;;;5033123;28;20474;-74
2024/01/03 00:03:02;;;;;;;13.02;2.00;;;8.40;99.90;;;;;;5034812;28;20170;-74
2024/01/03 00:05:41;;;;;;;6.60;1.27;;;8.40;99.90;;;;;;5037807;28;20444;-75
2024/01/03 00:08:27;;;;;;;13.55;1.58;;;8.40;99.90;;;;;;5038041;28;20481;-75
2024/01/03 00:10:59;;;;;;;13.60;2.00;;;8.40;99.90;;;;;;5037716;28;20076;-75
2024/01/03 00:13:33;;;;;;;5.60;1.13;;;8.40;99.90;;;;;;5054224;28;20037;-75
2024/01/03 00:16:03;;;;;;;6.03;1.73;;;8.40;99.90;;;;;;5053736;28;20571;-75
2024/01/03 00:18:38;;;;;;;14.65;2.00;;;8.40;99.90;;;;;;5037458;28;20409;-75
2024/01/03 00:21:09;;;;;;;13.90;1.63;;;8.40;99.90;;;;;;5053310;28;20049;-75
2024/01/03 00:23:53;;;;;;;8.98;1.77;;;8.40;99.90;;;;;;5053942;28;20052;-75
2024/01/03 00:26:29;;;;;;;14.27;1.98;;;8.40;99.90;;;;;;5054444;28;20041;-75
2024/01/03 00:28:56;;;;;;;5.82;1.73;;;8.40;99.90;;;;;;5053850;28;20033;-75
2024/01/03 00:31:44;;;;;;;12.48;1.80;;;8.40;99.90;;;;;;5054006;28;20041;-76
2024/01/03 00:34:56;;;;;;;6.53;1.55;;;8.40;99.90;;;;;;5034800;23;20041;-76
2024/01/03 00:37:29;;;;;;;5.70;1.25;;;8.40;99.90;;;;;;5034504;28;20057;-75
2024/01/03 00:40:00;;;;;;;9.85;1.30;;;8.40;99.90;;;;;;5034052;28;20053;-76
2024/01/03 00:42:29;;;;;;;11.43;2.10;;;8.40;99.90;;;;;;5035175;28;20060;-75
2024/01/03 00:44:56;;;;;;;5.40;1.98;;;8.40;99.90;;;;;;5017926;28;20431;-75
2024/01/03 00:47:23;;;;;;;7.10;1.10;;;8.40;99.90;;;;;;5034484;28;20045;-76
2024/01/03 00:49:50;;;;;;;7.88;1.83;;;8.50;99.90;;;;;;5033765;28;20043;-74
2024/01/03 00:52:20;;;;;;;8.80;1.23;;;8.50;99.90;;;;;;5017033;28;20511;-75
2024/01/03 00:54:47;;;;;;;9.65;1.48;;;8.40;99.90;;;;;;5017152;28;20505;-75
2024/01/03 00:57:14;;;;;;;8.35;1.38;;;8.40;99.90;;;;;;5032782;28;20041;-75
2024/01/03 00:59:40;;;;;;;10.52;1.67;;;8.40;99.90;;;;;;5016365;28;20422;-74
2024/01/03 01:02:07;;;;;;;9.88;0.90;;;8.40;99.90;;;;;;5032736;28;20041;-75
2024/01/03 01:04:34;;;;;;;8.30;1.60;;;8.40;99.90;;;;;;5015841;28;20828;-75
2024/01/03 01:07:00;;;;;;;6.82;1.63;;;8.40;99.90;;;;;;5016081;28;20410;-75
2024/01/03 01:09:27;;;;;;;13.27;2.00;;;8.40;99.90;;;;;;5016099;28;20124;-75
2024/01/03 01:11:53;;;;;;;9.00;2.08;;;8.40;99.90;;;;;;5032394;28;20229;-75
2024/01/03 01:14:19;;;;;;;8.88;1.40;;;8.40;99.90;;;;;;5031523;28;20053;-75
2024/01/03 01:16:45;;;;;;;7.80;1.30;;;8.40;99.90;;;;;;5016313;28;20136;-75
2024/01/03 01:19:12;;;;;;;10.55;1.35;;;8.40;99.90;;;;;;5016469;28;20072;-75
2024/01/03 01:21:40;;;;;;;8.65;1.30;;;8.40;99.90;;;;;;5016468;28;20033;-75
2024/01/03 01:24:06;;;;;;;8.65;1.55;;;8.40;99.90;;;;;;5033007;28;20112;-74
2024/01/03 01:26:36;;;;;;;4.97;1.08;;;8.40;99.90;;;;;;5033394;28;20047;-75
2024/01/03 01:29:02;;;;;;;11.63;1.23;;;8.40;99.90;;;;;;5016521;28;20220;-76
2024/01/03 01:31:28;;;;;;;11.85;1.48;;;8.40;99.90;;;;;;5033477;28;20477;-76
2024/01/03 01:33:54;;;;;;;6.03;1.20;;;8.40;99.90;;;;;;5034020;28;20405;-75
2024/01/03 01:36:29;;;;;;;13.98;1.65;;;8.40;99.90;;;;;;5035235;28;20453;-76
2024/01/03 01:38:58;;;;;;;9.30;1.40;;;8.50;99.90;;;;;;5018625;28;20075;-75
2024/01/03 01:41:27;;;;;;;8.95;1.60;;;8.50;99.90;;;;;;5017899;28;20406;-75
2024/01/03 01:43:54;;;;;;;8.13;1.25;;;8.50;99.90;;;;;;5034020;28;20552;-76
2024/01/03 01:46:20;;;;;;;9.82;1.27;;;8.50;99.90;;;;;;5017773;28;20548;-76
2024/01/03 01:48:47;;;;;;;10.65;1.77;;;8.50;99.90;;;;;;5035605;28;20394;-74
2024/01/03 01:51:15;;;;;;;8.80;1.20;;;8.50;99.90;;;;;;5035034;28;20081;-76
2024/01/03 01:53:48;;;;;;;16.75;1.85;;;8.50;99.90;;;;;;5033630;28;20045;-76
2024/01/03 01:56:16;;;;;;;7.45;1.85;;;8.50;99.90;;;;;;5018596;28;20045;-74
2024/01/03 01:58:44;;;;;;;4.32;1.08;;;8.50;99.90;;;;;;5019979;28;20083;-76
2024/01/03 02:01:10;;;;;;;18.27;1.90;;;8.50;99.90;;;;;;5032850;28;20049;-74
2024/01/03 02:03:38;;;;;;;6.03;1.38;;;8.50;99.90;;;;;;5032574;28;20056;-74
2024/01/03 02:06:08;;;;;;;9.88;1.50;;;8.50;99.90;;;;;;5033098;28;20049;-75
2024/01/03 02:08:35;;;;;;;7.90;1.30;;;8.50;99.90;;;;;;5033324;28;20045;-74
2024/01/03 02:11:03;;;;;;;8.25;1.50;;;8.50;99.90;;;;;;5018308;28;20045;-75
2024/01/03 02:13:30;;;;;;;11.43;1.45;;;8.60;99.90;;;;;;5016855;28;20045;-74
2024/01/03 02:15:56;;;;;;;5.60;1.30;;;8.60;99.90;;;;;;5032635;28;20131;-75
2024/01/03 02:18:24;;;;;;;11.50;1.60;;;8.60;99.90;;;;;;5015744;28;20052;-76
2024/01/03 02:20:52;;;;;;;6.57;1.50;;;8.60;99.90;;;;;;5032519;28;20130;-74
2024/01/03 02:23:18;;;;;;;15.55;1.83;;;8.60;99.90;;;;;;5015876;28;20137;-76
2024/01/03 02:25:44;;;;;;;7.55;1.42;;;8.70;99.90;;;;;;5031674;28;20072;-74
2024/01/03 02:28:10;;;;;;;9.00;1.58;;;8.70;99.90;;;;;;5032428;28;20049;-75
2024/01/03 02:30:37;;;;;;;8.95;1.33;;;8.70;99.90;;;;;;5032570;28;20284;-75
2024/01/03 02:33:03;;;;;;;;;;;8.70;99.90;;;;;;5015813;28;20517;-75
2024/01/03 02:35:29;;;;;;;11.80;1.88;;;8.70;99.90;;;;;;5032331;28;20278;-74
2024/01/03 02:37:55;;;;;;;7.28;1.00;;;8.60;99.90;;;;;;5032681;28;20472;-77
2024/01/03 02:40:25;;;;;;;4.28;1.10;;;8.70;99.90;;;;;;5032770;28;20389;-75
2024/01/03 02:42:54;;;;;;;7.18;1.08;;;8.70;99.90;;;;;;5016481;28;20509;-75
2024/01/03 02:45:20;;;;;;;7.35;1.20;;;8.70;99.90;;;;;;5016903;28;20041;-75
2024/01/03 02:47:46;;;;;;;13.00;1.25;;;8.70;99.90;;;;;;5032551;28;20072;-76
2024/01/03 02:50:12;;;;;;;9.13;1.45;;;8.70;99.90;;;;;;5031645;28;20361;-75
2024/01/03 02:52:39;;;;;;;4.07;0.90;;;8.80;99.90;;;;;;5017962;28;20223;-75
2024/01/03 02:55:05;;;;;;;4.80;1.13;;;8.80;99.90;;;;;;5033392;28;20045;-75
2024/01/03 02:57:35;;;;;;;7.90;1.83;;;8.80;99.90;;;;;;5035345;28;20068;-76
2024/01/03 03:00:01;;;;;;;9.95;2.08;;;8.80;99.90;;;;;;5018443;28;20203;-74
2024/01/03 03:02:27;;;;;;;8.68;1.77;;;8.80;99.90;;;;;;5032103;28;20041;-75
2024/01/03 03:04:54;;;;;;;10.77;1.95;;;8.80;99.90;;;;;;5031917;28;20133;-75
2024/01/03 03:07:20;;;;;;;7.78;1.30;;;8.80;99.90;;;;;;5015196;28;20037;-74
2024/01/03 03:09:46;;;;;;;7.50;1.17;;;8.80;99.90;;;;;;5030734;28;20072;-75
2024/01/03 03:12:13;;;;;;;10.80;1.20;;;8.80;99.90;;;;;;5030477;28;20128;-75
2024/01/03 03:14:39;;;;;;;2.67;1.02;;;8.80;99.90;;;;;;5030483;28;20056;-76
2024/01/03 03:17:08;;;;;;;9.25;1.13;;;8.80;99.90;;;;;;5013792;28;20053;-75
2024/01/03 03:19:38;;;;;;;6.68;1.27;;;8.80;99.90;;;;;;5030717;28;20077;-76
2024/01/03 03:22:04;;;;;;;6.85;1.52;;;8.80;99.90;;;;;;5031033;28;20041;-76
2024/01/03 03:24:30;;;;;;;9.55;1.65;;;8.80;99.90;;;;;;5030771;28;20048;-75
2024/01/03 03:26:57;;;;;;;7.68;1.58;;;8.90;99.90;;;;;;5030575;28;20057;-76
2024/01/03 03:29:32;;;;;;;;;;;8.90;99.90;;;;;;5030719;28;20466;-77
2024/01/03 03:32:11;;;;;;;9.23;1.00;;;8.80;99.90;;;;;;5029792;28;19917;-75
2024/01/03 03:34:37;;;;;;;9.00;1.73;;;8.80;99.90;;;;;;5029415;28;20120;-75
2024/01/03 03:37:04;;;;;;;7.25;1.55;;;8.80;99.90;;;;;;5030898;28;20049;-74
2024/01/03 03:39:30;;;;;;;4.78;1.23;;;8.80;99.90;;;;;;5035601;28;20389;-76
2024/01/03 03:41:56;;;;;;;8.32;1.23;;;8.90;99.90;;;;;;5036959;28;20382;-83
2024/01/03 03:44:22;;;;;;;8.80;1.50;;;8.80;99.90;;;;;;5035387;28;20048;-75
2024/01/03 03:46:48;;;;;;;4.38;1.27;;;8.80;99.90;;;;;;5034235;28;20045;-74
2024/01/03 03:49:14;;;;;;;9.43;1.53;;;8.80;99.90;;;;;;5035204;28;20591;-79
2024/01/03 03:51:40;;;;;;;9.30;2.53;;;8.80;99.90;;;;;;5019631;28;20042;-74
2024/01/03 03:54:06;;;;;;;12.80;2.00;;;8.80;99.90;;;;;;5038200;28;20172;-74
2024/01/03 03:56:31;;;;;;;6.15;1.00;;;8.80;99.90;;;;;;5038123;28;20045;-74
2024/01/03 03:58:57;;;;;;;6.27;1.20;;;8.80;99.90;;;;;;5021516;28;20110;-75
2024/01/03 04:01:23;;;;;;;7.60;0.90;;;8.90;99.90;;;;;;5037518;28;20375;-74
2024/01/03 04:03:48;;;;;;;8.97;1.00;;;8.80;99.90;;;;;;5021761;28;20041;-74
2024/01/03 04:06:15;;;;;;;8.83;1.10;;;8.90;99.90;;;;;;5038497;28;20045;-75
2024/01/03 04:08:45;;;;;;;9.98;1.83;;;8.90;99.90;;;;;;5021995;28;20124;-74
2024/01/03 04:11:11;;;;;;;6.10;1.00;;;8.90;99.90;;;;;;5037174;28;20053;-74
2024/01/03 04:13:40;;;;;;;7.68;0.88;;;8.90;99.90;;;;;;5036569;28;20049;-74
2024/01/03 04:16:07;;;;;;;2.65;0.55;;;8.80;99.90;;;;;;5035910;28;20045;-74
2024/01/03 04:18:34;;;;;;;9.35;1.00;;;8.80;99.90;;;;;;5036197;28;20045;-75
2024/01/03 04:21:01;;;;;;;5.82;1.05;;;8.80;99.90;;;;;;5036587;28;20529;-74
2024/01/03 04:23:27;;;;;;;5.63;1.45;;;8.80;99.90;;;;;;5038504;28;20068;-75
2024/01/03 04:25:52;;;;;;;6.40;1.13;;;8.80;99.90;;;;;;5037276;28;20045;-74
2024/01/03 04:28:18;;;;;;;4.67;0.83;;;8.80;99.90;;;;;;5037378;28;20658;-74
2024/01/03 04:30:43;;;;;;;8.67;1.10;;;8.80;99.90;;;;;;5020285;28;20041;-74
2024/01/03 04:33:09;;;;;;;5.03;0.70;;;8.80;99.90;;;;;;5021324;28;20060;-75
2024/01/03 04:35:35;;;;;;;7.83;1.43;;;8.80;99.90;;;;;;5020354;28;20038;-74
2024/01/03 04:38:02;;;;;;;15.47;2.20;;;8.90;99.90;;;;;;5021363;28;20041;-74
2024/01/03 04:40:30;;;;;;;10.48;2.00;;;8.90;99.90;;;;;;5037761;28;20046;-74
2024/01/03 04:42:55;;;;;;;10.68;1.45;;;8.90;99.90;;;;;;5038284;28;20056;-74
2024/01/03 04:45:24;;;;;;;7.80;1.53;;;8.90;99.90;;;;;;5019970;28;20076;-75
2024/01/03 04:47:49;;;;;;;9.45;1.60;;;8.80;99.90;;;;;;5037250;28;20125;-74
2024/01/03 04:50:15;;;;;;;9.37;1.33;;;8.90;99.90;;;;;;5038140;28;20482;-74
2024/01/03 04:52:41;;;;;;;9.70;1.50;;;8.80;99.90;;;;;;5037019;28;20490;-74
2024/01/03 04:55:07;;;;;;;7.10;1.60;;;8.80;99.90;;;;;;5020670;28;20105;-74
2024/01/03 04:57:36;;;;;;;6.28;1.48;;;8.80;99.90;;;;;;5037254;28;20041;-74
2024/01/03 05:00:04;;;;;;;10.25;1.17;;;8.80;99.90;;;;;;5036965;28;20050;-75
2024/01/03 05:02:30;;;;;;;7.07;1.05;;;8.70;99.90;;;;;;5037220;28;20037;-75
2024/01/03 05:04:56;;;;;;;9.73;1.50;;;8.70;99.90;;;;;;5036523;28;20041;-74
2024/01/03 05:07:21;;;;;;;2.53;0.70;;;8.60;99.90;;;;;;5036280;28;20091;-75
2024/01/03 05:09:47;;;;;;;6.63;1.10;;;8.60;99.90;;;;;;5036317;28;20569;-75
2024/01/03 05:12:13;;;;;;;7.63;1.40;;;8.60;99.90;;;;;;5035092;28;20064;-74
2024/01/03 05:14:38;;;;;;;6.70;1.00;;;8.60;99.90;;;;;;5035284;28;20068;-75
2024/01/03 05:17:04;;;;;;;4.23;0.73;;;8.60;99.90;;;;;;5035219;28;20071;-75
2024/01/03 05:19:29;;;;;;;4.03;1.17;;;8.50;99.90;;;;;;5035301;28;20045;-75
2024/01/03 05:21:55;;;;;;;12.93;1.73;;;8.50;99.90;;;;;;5034998;28;20044;-75
2024/01/03 05:24:21;;;;;;;12.00;2.17;;;8.50;99.90;;;;;;5036011;28;20460;-75
2024/01/03 05:26:47;;;;;;;9.30;2.20;;;8.50;99.90;;;;;;5036845;28;20050;-75
2024/01/03 05:29:12;;;;;;;13.45;2.40;;;8.60;99.90;;;;;;5036225;28;20490;-75
2024/01/03 05:31:38;;;;;;;9.73;2.23;;;8.60;99.90;;;;;;5036481;28;20050;-75
2024/01/03 05:34:04;;;;;;;17.37;2.30;;;8.60;99.90;;;;;;5036466;28;20110;-75
2024/01/03 05:36:30;;;;;;;16.08;2.53;;;8.70;99.90;;;;;;5036465;28;20049;-75
2024/01/03 05:38:55;;;;;;;18.93;3.27;;;8.70;99.90;;;;;;5036805;28;20079;-75
2024/01/03 05:41:24;;;;;;;21.93;2.90;;;8.70;99.90;;;;;;5036473;28;20044;-75
2024/01/03 05:43:50;;;;;;;23.02;3.47;;;8.80;99.90;;;;;;5019794;28;20286;-74
2024/01/03 05:46:15;;;;;;;13.83;2.47;;;8.80;99.90;;;;;;5035850;28;20045;-75
2024/01/03 05:48:42;;;;;;;10.53;2.47;;;8.90;99.90;;;;;;5036548;28;20398;-75
2024/01/03 05:51:08;;;;;;;13.68;2.15;;;8.80;99.90;;;;;;5036182;28;20046;-75
2024/01/03 05:53:34;;;;;;;15.30;1.90;;;8.80;99.90;;;;;;5036061;28;20049;-74
2024/01/03 05:56:00;;;;;;;18.63;2.57;;;8.80;99.90;;;;;;5035846;28;20060;-75
2024/01/03 05:58:25;;;;;;;11.73;2.97;;;8.80;99.90;;;;;;5037083;28;20045;-75
2024/01/03 06:00:52;;;;;;;13.43;1.80;;;8.80;99.90;;;;;;5035465;28;20540;-76
2024/01/03 06:03:18;;;;;;;12.85;3.00;;;8.80;99.90;;;;;;5036405;28;20046;-75
2024/01/03 06:05:43;;;;;;;13.70;2.87;;;8.80;99.90;;;;;;5036701;28;20088;-76
2024/01/03 06:08:09;;;;;;;13.10;1.97;;;8.80;99.90;;;;;;5036510;28;20338;-76
2024/01/03 06:10:35;;;;;;;15.13;2.70;;;8.80;99.90;;;;;;5020066;28;20478;-75
2024/01/03 06:13:00;;;;;;;20.60;1.53;;;8.80;99.90;;;;;;5035922;28;20041;-75
2024/01/03 06:15:26;;;;;;;8.47;1.53;;;8.80;99.90;;;;;;5036581;28;20713;-76
2024/01/03 06:17:52;;;;;;;12.53;2.40;;;8.80;99.90;;;;;;5035591;28;20044;-75
2024/01/03 06:20:18;;;;;;;14.73;2.17;;;8.80;99.90;;;;;;5036232;28;20033;-75
2024/01/03 06:22:44;;;;;;;15.02;2.22;;;8.80;99.90;;;;;;5018891;28;20044;-76
2024/01/03 06:25:09;;;;;;;12.00;2.13;;;8.90;99.90;;;;;;5036139;28;20045;-76
2024/01/03 06:27:35;;;;;;;8.93;2.10;;;8.90;99.90;;;;;;5035807;28;20044;-75
2024/01/03 06:30:00;;;;;;;15.40;2.43;;;8.90;99.90;;;;;;5032263;28;20407;-75
2024/01/03 06:32:26;;;;;;;14.13;2.53;;;8.90;99.90;;;;;;5015661;28;20053;-75
2024/01/03 06:34:52;;;;;;;15.43;2.20;;;8.90;99.90;;;;;;5033780;28;20517;-76
2024/01/03 06:37:17;;;;;;;16.70;2.80;;;8.90;99.90;;;;;;5033733;28;20490;-76
2024/01/03 06:39:43;;;;;;;11.60;2.43;;;8.90;99.90;;;;;;5032299;28;20037;-75
2024/01/03 06:42:08;;;;;;;18.47;2.87;;;8.90;99.90;;;;;;5030969;28;20037;-78
2024/01/03 06:44:34;;;;;;;10.73;2.53;;;8.90;99.90;;;;;;5031592;28;20079;-78
2024/01/03 06:47:00;;;;;;;16.97;2.77;;;8.90;99.90;;;;;;5017162;28;20108;-78
2024/01/03 06:49:25;;;;;;;16.27;2.13;;;8.90;99.90;;;;;;5007629;28;20497;-79
2024/01/03 06:51:51;;;;;;;18.48;2.55;;;8.90;99.90;;;;;;5007094;28;20164;-79
2024/01/03 06:54:17;;;;;;;12.47;2.33;;;8.90;99.90;;;;;;5024867;28;20041;-76
2024/01/03 06:56:42;;;;;;;20.03;2.47;;;8.90;99.90;;;;;;5011015;28;20071;-76
2024/01/03 06:59:08;;;;;;;16.57;2.67;;;9.00;99.90;;;;;;5026432;28;20061;-74
2024/01/03 07:01:33;;;;;;;20.33;2.47;;;8.90;99.90;;;;;;5042487;28;20099;-76
2024/01/03 07:04:01;;;;;;;9.93;2.30;;;8.90;99.90;;;;;;5011647;28;20037;-76
2024/01/03 07:06:26;;;;;;;8.13;2.17;;;9.00;99.90;;;;;;5027619;28;20037;-76
2024/01/03 07:08:53;;;;;;;15.53;2.80;;;9.00;99.90;;;;;;5025256;28;20037;-78
2024/01/03 07:11:18;;;;;;;;;;;9.00;99.90;;;;;;5029460;28;20509;-74
2024/01/03 07:13:44;;;;;;;11.95;2.25;;;9.00;99.90;;;;;;5033740;28;19970;-74
2024/01/03 07:16:11;;;;;;;17.13;1.77;;;9.00;99.90;;;;;;5016299;28;20130;-74
2024/01/03 07:18:36;;;;;;;;;;;9.00;99.90;;;;;;5015368;28;20049;-73
2024/01/03 07:21:02;;;;;;;15.18;1.83;;;9.00;99.90;;;;;;5014673;28;19924;-74
2024/01/03 07:23:29;;;;;;;8.13;1.85;;;9.00;99.90;;;;;;5030817;28;20196;-74
2024/01/03 07:25:54;;;;;;;10.90;1.70;;;9.00;99.90;;;;;;5041960;28;20041;-74
2024/01/03 07:28:20;;;;;;;12.60;1.93;;;9.00;99.90;;;;;;5030819;28;20120;-74
2024/01/03 07:30:46;;;;;;;9.53;1.90;;;9.00;99.90;;;;;;5027683;28;20030;-74
2024/01/03 07:33:11;;;;;;;13.98;2.20;;;9.00;99.90;;;;;;5030866;28;20042;-74
2024/01/03 07:35:37;;;;;;;7.73;1.23;;;9.00;99.90;;;;;;5011429;28;20062;-75
2024/01/03 07:38:03;;;;;;;12.83;2.17;;;9.00;99.90;;;;;;5029761;28;20056;-74
2024/01/03 07:40:28;;;;;;;15.48;1.60;;;9.00;99.90;;;;;;5029551;28;20121;-75
2024/01/03 07:42:54;;;;;;;15.80;2.03;;;9.00;99.90;;;;;;5029122;28;20050;-74
2024/01/03 07:45:20;;;;;;;11.95;1.85;;;9.00;99.90;;;;;;5029868;28;20042;-75
2024/01/03 07:47:46;;;;;;;16.73;2.43;;;9.00;99.90;;;;;;5013162;28;20517;-75
2024/01/03 07:50:12;;;;;;;10.88;2.38;;;8.90;99.90;;;;;;5029524;28;20037;-75
2024/01/03 07:52:37;;;;;;;9.63;1.40;;;8.90;99.90;;;;;;5030180;28;20049;-75
2024/01/03 07:55:04;;;;;;;15.60;2.13;;;8.90;99.90;;;;;;5029038;28;20099;-75
2024/01/03 07:57:29;;;;;;;11.60;1.92;;;8.90;99.90;;;;;;5029348;28;20053;-74
2024/01/03 07:59:55;;;;;;;14.13;2.03;;;8.90;99.90;;;;;;5029105;28;20563;-75
2024/01/03 08:02:21;;;;;;;11.67;2.00;;;8.80;99.90;;;;;;5030304;28;20046;-74
2024/01/03 08:04:46;;;;;;;11.50;3.20;;;8.80;99.90;;;;;;5029471;28;20033;-74
2024/01/03 08:07:12;;;;;;;6.53;1.20;;;8.80;99.90;;;;;;5029932;28;20092;-74
2024/01/03 08:09:37;;;;;;;13.63;1.93;;;8.80;99.90;;;;;;5029801;28;20042;-75
2024/01/03 08:12:08;;;;;;;8.63;1.10;;;8.80;99.90;;;;;;5012996;28;20045;-74
2024/01/03 08:14:35;;;;;;;7.32;1.58;;;8.80;99.90;;;;;;5030606;28;20046;-74
2024/01/03 08:17:01;;;;;;;19.15;1.65;;;8.70;99.90;;;;;;5031074;28;20042;-75
2024/01/03 08:19:27;;;;;;;;;;;8.70;99.90;;;;;;5008749;28;20128;-74
2024/01/03 08:21:55;;;;;;;9.80;1.13;;;8.60;99.90;;;;;;5030775;28;19964;-74
2024/01/03 08:24:20;;;;;;;6.05;1.38;;;8.70;99.90;;;;;;5015716;28;20037;-74
2024/01/03 08:26:47;;;;;;;7.43;2.05;;;8.70;99.90;;;;;;5035012;28;20067;-74
2024/01/03 08:29:13;;;;;;;13.05;1.83;;;8.70;99.90;;;;;;5026368;28;20081;-74
2024/01/03 08:31:39;;;;;;;10.43;2.65;;;8.70;99.90;;;;;;5035181;28;20242;-75
2024/01/03 08:34:05;;;;;;;5.27;1.90;;;8.70;99.90;;;;;;5017261;28;20239;-75
2024/01/03 08:36:44;;;;;;;13.10;1.73;;;8.70;99.90;;;;;;5036932;28;20045;-75
2024/01/03 08:39:10;;;;;;;9.25;2.65;;;8.70;99.90;;;;;;5034782;28;20532;-75
2024/01/03 08:41:36;;;;;;;13.00;1.88;;;8.70;99.90;;;;;;5034176;28;20069;-75
2024/01/03 08:44:05;;;;;;;11.15;1.73;;;8.70;99.90;;;;;;5017249;28;20060;-75
2024/01/03 08:46:38;;;;;;;11.18;1.50;;;8.70;99.90;;;;;;5017368;28;20045;-75
2024/01/03 08:49:03;;;;;;;9.18;1.98;;;8.70;99.90;;;;;;5027515;28;20053;-75
2024/01/03 08:51:29;;;;;;;9.10;2.03;;;8.70;99.90;;;;;;5026741;28;20068;-75
2024/01/03 08:53:55;;;;;;;11.25;2.38;;;8.70;99.90;;;;;;5033995;28;20429;-75
2024/01/03 08:56:20;;;;;;;19.53;2.70;;;8.70;99.90;;;;;;5027114;28;20539;-75
2024/01/03 08:58:47;;;;;;;7.43;1.33;;;8.70;99.90;;;;;;5033607;28;20805;-75
2024/01/03 09:01:16;;;;;;;9.23;1.40;;;8.70;99.90;;;;;;5033321;28;20061;-75
2024/01/03 09:03:42;;;;;;;12.93;1.77;;;8.70;99.90;;;;;;5032293;28;20297;-75
2024/01/03 09:06:08;;;;;;;6.80;1.52;;;8.70;99.90;;;;;;5032757;28;20506;-76
2024/01/03 09:08:34;;;;;;;13.00;1.90;;;8.70;99.90;;;;;;5032886;28;20053;-75
2024/01/03 09:10:59;;;;;;;9.57;1.80;;;8.70;99.90;;;;;;5033180;28;20099;-75
2024/01/03 09:13:25;;;;;;;10.10;2.00;;;8.70;99.90;;;;;;5032745;28;20037;-75
2024/01/03 09:15:52;;;;;;;6.10;1.40;;;8.80;99.90;;;;;;5032592;28;20045;-75
2024/01/03 09:18:17;;;;;;;9.90;2.90;;;8.80;99.90;;;;;;5032618;28;20045;-75
2024/01/03 09:20:43;;;;;;;15.82;1.58;;;8.80;99.90;;;;;;5035750;28;20522;-75
2024/01/03 09:23:09;;;;;;;9.27;1.63;;;8.80;99.90;;;;;;5032730;28;20044;-75
2024/01/03 09:25:34;;;;;;;14.27;1.77;;;8.80;99.90;;;;;;5033378;28;20502;-75
2024/01/03 09:28:00;;;;;;;7.40;1.33;;;8.80;99.90;;;;;;5032762;28;20041;-75
2024/01/03 09:30:26;;;;;;;8.48;1.48;;;8.90;99.90;;;;;;5033303;28;20029;-74
2024/01/03 09:32:51;;;;;;;11.20;1.77;;;8.90;99.90;;;;;;5027906;28;20091;-75
2024/01/03 09:35:17;;;;;;;8.23;1.43;;;8.90;99.90;;;;;;5032317;28;20049;-75
2024/01/03 09:37:43;;;;;;;8.10;1.27;;;8.90;99.90;;;;;;5032987;28;20278;-74
2024/01/03 09:40:11;;;;;;;10.80;1.23;;;9.00;99.90;;;;;;5033490;28;20042;-75
2024/01/03 09:42:37;;;;;;;12.45;1.25;;;8.90;99.90;;;;;;5033420;28;20046;-74
2024/01/03 09:45:04;;;;;;;11.38;1.73;;;9.00;99.90;;;;;;5031530;28;20077;-75
2024/01/03 09:47:29;;;;;;;13.23;1.50;;;8.90;99.90;;;;;;5033275;28;20038;-75
2024/01/03 09:49:55;;;;;;;6.33;1.40;;;9.00;99.90;;;;;;5032479;28;20117;-74
2024/01/03 09:52:22;;;;;;;10.13;1.40;;;9.00;99.90;;;;;;5011205;28;20125;-74
2024/01/03 09:54:48;;;;;;;8.93;1.52;;;9.00;99.90;;;;;;5032968;28;20603;-74
2024/01/03 09:57:15;;;;;;;10.93;1.63;;;9.00;99.90;;;;;;5032586;28;20133;-74
2024/01/03 09:59:41;;;;;;;10.35;1.85;;;9.10;99.90;;;;;;5044182;28;20049;-74
2024/01/03 10:02:07;;;;;;;11.27;2.93;;;9.10;99.90;;;;;;5033076;28;20049;-75
2024/01/03 10:04:35;;;;;;;10.70;1.52;;;9.10;99.90;;;;;;5032363;28;20037;-74
2024/01/03 10:07:01;;;;;;;9.55;1.73;;;9.10;99.90;;;;;;5032206;28;20045;-75
2024/01/03 10:09:41;;;;;;;5.40;1.20;;;9.20;99.90;;;;;;5032789;28;20520;-75
2024/01/03 10:12:19;;;;;;;7.95;1.25;;;9.20;99.90;;;;;;5032772;28;20049;-74
2024/01/03 10:14:45;;;;;;;5.80;1.85;;;9.30;99.90;;;;;;5015083;28;20049;-74
2024/01/03 10:17:11;;;;;;;5.47;1.42;;;9.30;99.90;;;;;;5032066;28;20073;-74
2024/01/03 10:19:37;;;;;;;6.80;1.40;;;9.40;99.90;;;;;;5030910;28;20630;-74
2024/01/03 10:22:04;;;;;;;9.45;1.60;;;9.50;99.90;;;;;;5033608;28;20291;-74
2024/01/03 10:24:31;;;;;;;10.38;1.42;;;9.40;99.90;;;;;;5032121;28;20064;-75
2024/01/03 10:27:11;;;;;;;6.82;1.20;;;9.40;99.90;;;;;;5031859;28;20041;-74
2024/01/03 10:29:37;;;;;;;5.18;1.77;;;9.40;99.90;;;;;;5032902;28;20044;-75
2024/01/03 10:32:05;;;;;;;;;;;9.40;99.90;;;;;;5027449;28;20085;-74
2024/01/03 10:34:31;;;;;;;;;;;9.40;99.90;;;;;;5032480;28;19952;-74
2024/01/03 10:36:58;;;;;;;5.28;1.20;;;9.40;99.90;;;;;;5030438;28;19983;-74
2024/01/03 10:39:25;;;;;;;11.82;1.58;;;9.50;99.90;;;;;;5025789;28;20045;-74
2024/01/03 10:41:53;;;;;;;8.13;1.77;;;9.40;99.90;;;;;;5014863;28;20037;-75
2024/01/03 10:44:19;;;;;;;18.48;1.92;;;9.50;99.90;;;;;;5014676;28;20083;-74
2024/01/03 10:46:49;;;;;;;7.75;2.25;;;9.50;99.90;;;;;;5025907;28;20498;-74
2024/01/03 10:49:18;;;;;;;8.40;1.50;;;9.50;99.90;;;;;;5015268;28;20049;-74
2024/01/03 10:51:45;;;;;;;11.60;1.70;;;9.50;99.90;;;;;;5015487;28;21275;-74
2024/01/03 10:54:12;;;;;;;18.10;2.88;;;9.60;99.90;;;;;;5031730;28;20053;-74
2024/01/03 10:56:38;;;;;;;4.93;1.25;;;9.60;99.90;;;;;;5031787;28;20041;-74
2024/01/03 10:59:05;;;;;;;8.82;1.45;;;9.60;99.90;;;;;;5031474;28;20103;-74
2024/01/03 11:01:57;;;;;;;13.18;1.95;;;9.60;99.90;;;;;;5030320;28;20125;-74
2024/01/03 11:04:46;;;;;;;13.68;2.88;;;9.70;99.90;;;;;;5045986;28;20129;-74
2024/01/03 11:07:33;;;;;;;10.82;2.17;;;9.60;99.90;;;;;;5015595;28;20454;-75
2024/01/03 11:09:59;;;;;;;9.07;2.30;;;9.60;99.90;;;;;;5027606;28;20417;-74
2024/01/03 11:12:28;;;;;;;8.80;2.00;;;9.60;99.90;;;;;;5033495;28;20128;-74
2024/01/03 11:14:55;;;;;;;11.80;2.55;;;9.50;99.90;;;;;;5031271;28;20068;-74
2024/01/03 11:17:33;;;;;;;20.65;1.85;;;9.50;99.90;;;;;;5033741;28;20073;-74
2024/01/03 11:20:09;;;;;;;10.25;2.22;;;9.60;99.90;;;;;;5028786;28;20064;-74
2024/01/03 11:23:04;;;;;;;14.52;2.53;;;9.60;99.90;;;;;;5029894;28;20579;-74
2024/01/03 11:25:51;;;;;;;11.25;1.70;;;9.60;99.90;;;;;;5014871;28;20047;-74
2024/01/03 11:28:33;;;;;;;11.85;1.88;;;9.60;99.90;;;;;;5031142;28;20037;-74
2024/01/03 11:31:00;;;;;;;13.38;2.30;;;9.50;99.90;;;;;;5027216;28;20121;-74
2024/01/03 11:33:37;;;;;;;13.77;2.35;;;9.50;99.90;;;;;;5031298;28;20519;-74
2024/01/03 11:36:03;;;;;;;14.00;2.15;;;9.60;99.90;;;;;;5031225;28;20045;-74
2024/01/03 11:38:42;;;;;;;15.83;1.83;;;9.60;99.90;;;;;;5031118;28;20041;-74
2024/01/03 11:41:09;;;;;;;11.70;1.88;;;9.60;99.90;;;;;;5030197;28;20112;-74
2024/01/03 11:43:35;;;;;;;;;;;9.60;99.90;;;;;;5032693;28;20049;-74
2024/01/03 11:46:09;;;;;;;18.77;2.25;;;9.60;99.90;;;;;;5031578;28;20305;-74
2024/01/03 11:48:35;;;;;;;11.77;1.77;;;9.60;99.90;;;;;;5028673;28;20052;-74
2024/01/03 11:51:01;;;;;;;11.05;1.50;;;9.60;99.90;;;;;;5030913;28;20073;-74
2024/01/03 11:53:27;;;;;;;17.50;2.67;;;9.60;99.90;;;;;;5031107;28;20048;-74
2024/01/03 11:55:54;;;;;;;15.17;2.63;;;9.70;99.90;;;;;;5032443;28;20047;-75
2024/01/03 11:58:19;;;;;;;8.15;1.95;;;9.60;99.90;;;;;;5014921;28;20450;-74
2024/01/03 12:00:45;;;;;;;10.23;1.65;;;9.70;99.90;;;;;;5034222;28;20185;-74
2024/01/03 12:03:18;;;;;;;15.27;1.77;;;9.60;99.90;;;;;;5033992;28;20062;-73
2024/01/03 12:05:44;;;;;;;13.57;2.38;;;9.60;99.90;;;;;;5030098;28;20046;-74
2024/01/03 12:08:10;;;;;;;;;;;9.60;99.90;;;;;;5034669;28;20394;-73
2024/01/03 12:10:36;;;;;;;9.85;1.83;;;9.70;99.90;;;;;;5017330;28;20012;-74
2024/01/03 12:13:02;;;;;;;11.77;2.10;;;9.60;99.90;;;;;;5033592;28;20417;-74
2024/01/03 12:15:28;;;;;;;9.25;2.38;;;9.70;99.90;;;;;;5025648;28;20045;-74
2024/01/03 12:18:04;;;;;;;11.68;1.67;;;9.70;99.90;;;;;;5033952;28;20049;-74
2024/01/03 12:20:30;;;;;;;14.35;3.17;;;9.70;99.90;;;;;;5026698;28;20034;-74
2024/01/03 12:23:18;;;;;;;8.73;1.83;;;9.70;99.90;;;;;;5035109;28;20037;-74
2024/01/03 12:25:44;;;;;;;9.27;1.65;;;9.70;99.90;;;;;;5031668;28;20060;-74
2024/01/03 12:28:19;;;;;;;13.45;2.53;;;9.70;99.90;;;;;;5034265;28;20037;-74
2024/01/03 12:30:45;;;;;;;14.40;2.10;;;9.70;99.90;;;;;;5033592;28;20045;-74
2024/01/03 12:33:15;;;;;;;9.87;3.10;;;9.70;99.90;;;;;;5033334;28;20520;-74
2024/01/03 12:35:41;;;;;;;11.02;1.70;;;9.80;99.90;;;;;;5016157;28;20045;-73
2024/01/03 12:38:07;;;;;;;11.10;1.77;;;9.70;99.90;;;;;;5024335;28;20315;-73
2024/01/03 12:40:33;;;;;;;10.98;2.22;;;9.70;99.90;;;;;;5015898;28;20041;-72
2024/01/03 12:42:58;;;;;;;14.90;2.10;;;9.70;99.90;;;;;;5032477;28;20041;-74
2024/01/03 12:45:24;;;;;;;11.90;2.00;;;9.70;99.90;;;;;;5031595;28;20464;-74
2024/01/03 12:47:50;;;;;;;23.80;2.43;;;9.70;99.90;;;;;;5031439;28;20709;-73
2024/01/03 12:50:16;;;;;;;16.93;2.13;;;9.70;99.90;;;;;;5031584;28;20052;-74
2024/01/03 12:52:42;;;;;;;;;;;9.70;99.90;;;;;;5033307;28;20041;-73
2024/01/03 12:55:07;;;;;;;12.02;2.75;;;9.70;99.90;;;;;;5031435;28;20348;-73
2024/01/03 12:57:34;;;;;;;14.98;1.83;;;9.70;99.90;;;;;;5031695;28;20038;-74